sensor_id;sensor_type;location;lat;lon;timestamp;pressure;altitude;pressure_sealevel;temperature;humidity
38939;BME280;24211;49.980;19.776;2023-02-17T00:01:30;99978.53;;;3.18;100.00
38939;BME280;24211;49.980;19.776;2023-02-17T00:03:59;99967.97;;;3.18;100.00
38939;BME280;24211;49.980;19.776;2023-02-17T00:06:30;99974.91;;;3.19;100.00
38939;BME280;24211;49.980;19.776;2023-02-17T00:08:58;99974.41;;;3.15;100.00
38939;BME280;24211;49.980;19.776;2023-02-17T00:11:26;99979.19;;;3.12;100.00
38939;BME280;24211;49.980;19.776;2023-02-17T00:13:54;99972.56;;;3.08;100.00
38939;BME280;24211;49.980;19.776;2023-02-17T00:16:25;99973.72;;;3.05;100.00
38939;BME280;24211;49.980;19.776;2023-02-17T00:18:57;99978.16;;;3.05;100.00
38939;BME280;24211;49.980;19.776;2023-02-17T00:21:28;99965.97;;;3.04;100.00
38939;BME280;24211;49.980;19.776;2023-02-17T00:23:58;99965.97;;;3.04;100.00
38939;BME280;24211;49.980;19.776;2023-02-17T00:26:26;99967.09;;;3.01;100.00
38939;BME280;24211;49.980;19.776;2023-02-17T00:28:53;99959.31;;;3.00;100.00
38939;BME280;24211;49.980;19.776;2023-02-17T00:31:22;99962.97;;;2.99;100.00
38939;BME280;24211;49.980;19.776;2023-02-17T00:33:54;99961.31;;;2.98;100.00
38939;BME280;24211;49.980;19.776;2023-02-17T00:36:22;99962.31;;;2.97;100.00
38939;BME280;24211;49.980;19.776;2023-02-17T00:38:50;99958.00;;;2.96;100.00
38939;BME280;24211;49.980;19.776;2023-02-17T00:41:18;99952.91;;;2.94;100.00
38939;BME280;24211;49.980;19.776;2023-02-17T00:43:47;99960.50;;;2.97;100.00
38939;BME280;24211;49.980;19.776;2023-02-17T00:46:16;99949.94;;;2.97;100.00
38939;BME280;24211;49.980;19.776;2023-02-17T00:48:45;99958.84;;;2.96;100.00
38939;BME280;24211;49.980;19.776;2023-02-17T00:51:14;99945.81;;;2.95;100.00
38939;BME280;24211;49.980;19.776;2023-02-17T00:53:43;99945.28;;;2.91;100.00
38939;BME280;24211;49.980;19.776;2023-02-17T00:56:11;99943.63;;;2.90;100.00
38939;BME280;24211;49.980;19.776;2023-02-17T00:58:39;99933.91;;;2.91;100.00
38939;BME280;24211;49.980;19.776;2023-02-17T01:01:09;99933.41;;;2.87;100.00
38939;BME280;24211;49.980;19.776;2023-02-17T01:03:40;99934.22;;;2.88;100.00
38939;BME280;24211;49.980;19.776;2023-02-17T01:06:13;99936.84;;;2.88;100.00
38939;BME280;24211;49.980;19.776;2023-02-17T01:08:44;99927.59;;;2.84;100.00
38939;BME280;24211;49.980;19.776;2023-02-17T01:11:24;99925.94;;;2.83;100.00
38939;BME280;24211;49.980;19.776;2023-02-17T01:13:53;99919.88;;;2.82;100.00
38939;BME280;24211;49.980;19.776;2023-02-17T01:16:25;99913.75;;;2.82;100.00
38939;BME280;24211;49.980;19.776;2023-02-17T01:18:55;99911.78;;;2.84;100.00
38939;BME280;24211;49.980;19.776;2023-02-17T01:21:27;99901.22;;;2.84;100.00
38939;BME280;24211;49.980;19.776;2023-02-17T01:23:58;99908.16;;;2.85;100.00
38939;BME280;24211;49.980;19.776;2023-02-17T01:26:30;99902.88;;;2.85;100.00
38939;BME280;24211;49.980;19.776;2023-02-17T01:29:01;99904.50;;;2.86;100.00
38939;BME280;24211;49.980;19.776;2023-02-17T01:31:29;99898.56;;;2.84;100.00
38939;BME280;24211;49.980;19.776;2023-02-17T01:34:00;99887.34;;;2.82;100.00
38939;BME280;24211;49.980;19.776;2023-02-17T01:36:28;99880.41;;;2.81;100.00
38939;BME280;24211;49.980;19.776;2023-02-17T01:38:56;99873.16;;;2.83;100.00
38939;BME280;24211;49.980;19.776;2023-02-17T01:41:26;99869.84;;;2.81;100.00
38939;BME280;24211;49.980;19.776;2023-02-17T01:44:20;99869.84;;;2.81;100.00
38939;BME280;24211;49.980;19.776;2023-02-17T01:46:51;99869.03;;;2.80;100.00
38939;BME280;24211;49.980;19.776;2023-02-17T01:49:37;99876.81;;;2.82;100.00
38939;BME280;24211;49.980;19.776;2023-02-17T01:52:23;99870.19;;;2.86;100.00
38939;BME280;24211;49.980;19.776;2023-02-17T01:55:02;99876.47;;;2.85;100.00
38939;BME280;24211;49.980;19.776;2023-02-17T01:57:36;99887.03;;;2.85;100.00
38939;BME280;24211;49.980;19.776;2023-02-17T02:00:07;99873.16;;;2.83;100.00
38939;BME280;24211;49.980;19.776;2023-02-17T02:02:43;99880.41;;;2.81;100.00
38939;BME280;24211;49.980;19.776;2023-02-17T02:05:15;99863.59;;;2.82;100.00
38939;BME280;24211;49.980;19.776;2023-02-17T02:07:46;99869.53;;;2.84;100.00
38939;BME280;24211;49.980;19.776;2023-02-17T02:10:18;99864.91;;;2.86;100.00
38939;BME280;24211;49.980;19.776;2023-02-17T02:12:46;99862.59;;;2.83;100.00
38939;BME280;24211;49.980;19.776;2023-02-17T02:15:18;99862.59;;;2.83;100.00
38939;BME280;24211;49.980;19.776;2023-02-17T02:21:17;99872.00;;;2.85;100.00
38939;BME280;24211;49.980;19.776;2023-02-17T02:23:55;99865.94;;;2.85;100.00
38939;BME280;24211;49.980;19.776;2023-02-17T02:27:10;99868.38;;;2.86;100.00
38939;BME280;24211;49.980;19.776;2023-02-17T02:35:57;99867.88;;;2.83;100.00
38939;BME280;24211;49.980;19.776;2023-02-17T02:38:43;99871.19;;;2.85;100.00
38939;BME280;24211;49.980;19.776;2023-02-17T02:41:20;99872.84;;;2.86;100.00
38939;BME280;24211;49.980;19.776;2023-02-17T02:43:51;99867.88;;;2.83;100.00
38939;BME280;24211;49.980;19.776;2023-02-17T02:46:19;99867.56;;;2.86;100.00
38939;BME280;24211;49.980;19.776;2023-02-17T02:48:47;99871.19;;;2.85;100.00
38939;BME280;24211;49.980;19.776;2023-02-17T02:51:59;99866.91;;;2.84;100.00
38939;BME280;24211;49.980;19.776;2023-02-17T02:57:23;99883.72;;;2.83;100.00
38939;BME280;24211;49.980;19.776;2023-02-17T03:03:34;99866.56;;;2.79;100.00
38939;BME280;24211;49.980;19.776;2023-02-17T03:06:38;99870.19;;;2.78;100.00
38939;BME280;24211;49.980;19.776;2023-02-17T03:09:20;99867.69;;;2.76;100.00
38939;BME280;24211;49.980;19.776;2023-02-17T03:11:49;99860.63;;;2.77;100.00
38939;BME280;24211;49.980;19.776;2023-02-17T03:14:20;99867.69;;;2.76;100.00
38939;BME280;24211;49.980;19.776;2023-02-17T03:16:49;99856.31;;;2.76;100.00
38939;BME280;24211;49.980;19.776;2023-02-17T03:19:21;99861.59;;;2.76;100.00
38939;BME280;24211;49.980;19.776;2023-02-17T03:21:54;99857.31;;;2.75;100.00
38939;BME280;24211;49.980;19.776;2023-02-17T03:24:23;99863.56;;;2.74;100.00
38939;BME280;24211;49.980;19.776;2023-02-17T03:26:51;99852.19;;;2.73;100.00
38939;BME280;24211;49.980;19.776;2023-02-17T03:29:18;99859.44;;;2.71;100.00
38939;BME280;24211;49.980;19.776;2023-02-17T03:31:46;99855.00;;;2.72;100.00
38939;BME280;24211;49.980;19.776;2023-02-17T03:34:13;99856.66;;;2.73;100.00
38939;BME280;24211;49.980;19.776;2023-02-17T03:36:41;99860.28;;;2.72;100.00
38939;BME280;24211;49.980;19.776;2023-02-17T03:39:08;99858.63;;;2.71;100.00
38939;BME280;24211;49.980;19.776;2023-02-17T03:41:35;99856.66;;;2.73;100.00
38939;BME280;24211;49.980;19.776;2023-02-17T03:44:02;99862.75;;;2.73;100.00
38939;BME280;24211;49.980;19.776;2023-02-17T03:46:30;99858.28;;;2.74;100.00
38939;BME280;24211;49.980;19.776;2023-02-17T03:48:57;99858.28;;;2.74;100.00
38939;BME280;24211;49.980;19.776;2023-02-17T03:51:25;99852.03;;;2.75;100.00
38939;BME280;24211;49.980;19.776;2023-02-17T03:53:52;99842.47;;;2.74;100.00
38939;BME280;24211;49.980;19.776;2023-02-17T03:56:19;99850.38;;;2.74;100.00
38939;BME280;24211;49.980;19.776;2023-02-17T03:58:46;99836.03;;;2.76;100.00
38939;BME280;24211;49.980;19.776;2023-02-17T04:01:14;99842.31;;;2.75;100.00
38939;BME280;24211;49.980;19.776;2023-02-17T04:03:41;99839.69;;;2.75;100.00
38939;BME280;24211;49.980;19.776;2023-02-17T04:06:09;99833.56;;;2.75;100.00
38939;BME280;24211;49.980;19.776;2023-02-17T04:08:38;99834.53;;;2.74;100.00
38939;BME280;24211;49.980;19.776;2023-02-17T04:11:08;99831.91;;;2.74;100.00
38939;BME280;24211;49.980;19.776;2023-02-17T04:13:36;99833.56;;;2.75;100.00
38939;BME280;24211;49.980;19.776;2023-02-17T04:16:07;99829.94;;;2.76;100.00
38939;BME280;24211;49.980;19.776;2023-02-17T04:18:34;99831.59;;;2.77;100.00
38939;BME280;24211;49.980;19.776;2023-02-17T04:21:03;99826.63;;;2.74;100.00
38939;BME280;24211;49.980;19.776;2023-02-17T04:23:31;99822.34;;;2.73;100.00
38939;BME280;24211;49.980;19.776;2023-02-17T04:25:58;99832.75;;;2.74;100.00
38939;BME280;24211;49.980;19.776;2023-02-17T04:28:25;99831.91;;;2.74;100.00
38939;BME280;24211;49.980;19.776;2023-02-17T04:30:53;99830.28;;;2.73;100.00
38939;BME280;24211;49.980;19.776;2023-02-17T04:33:20;99826.63;;;2.74;100.00
38939;BME280;24211;49.980;19.776;2023-02-17T04:35:47;99824.00;;;2.74;100.00
38939;BME280;24211;49.980;19.776;2023-02-17T04:38:15;99816.06;;;2.74;100.00
38939;BME280;24211;49.980;19.776;2023-02-17T04:40:42;99815.09;;;2.75;100.00
38939;BME280;24211;49.980;19.776;2023-02-17T04:43:09;99818.72;;;2.74;100.00
38939;BME280;24211;49.980;19.776;2023-02-17T04:45:37;99818.88;;;2.72;100.00
38939;BME280;24211;49.980;19.776;2023-02-17T04:48:04;99814.44;;;2.73;100.00
38939;BME280;24211;49.980;19.776;2023-02-17T04:50:32;99817.75;;;2.75;100.00
38939;BME280;24211;49.980;19.776;2023-02-17T04:52:59;99813.94;;;2.77;100.00
38939;BME280;24211;49.980;19.776;2023-02-17T04:55:26;99817.56;;;2.76;100.00
38939;BME280;24211;49.980;19.776;2023-02-17T04:57:53;99815.75;;;2.77;100.00
38939;BME280;24211;49.980;19.776;2023-02-17T05:00:20;99808.81;;;2.76;100.00
38939;BME280;24211;49.980;19.776;2023-02-17T05:02:47;99810.47;;;2.77;100.00
38939;BME280;24211;49.980;19.776;2023-02-17T05:05:15;99819.38;;;2.76;100.00
38939;BME280;24211;49.980;19.776;2023-02-17T05:07:45;99821.03;;;2.77;100.00
38939;BME280;24211;49.980;19.776;2023-02-17T05:10:15;99822.84;;;2.84;100.00
38939;BME280;24211;49.980;19.776;2023-02-17T05:12:43;99817.41;;;2.86;100.00
38939;BME280;24211;49.980;19.776;2023-02-17T05:15:11;99816.44;;;2.87;100.00
38939;BME280;24211;49.980;19.776;2023-02-17T05:17:39;99811.47;;;2.84;100.00
38939;BME280;24211;49.980;19.776;2023-02-17T05:20:08;99810.81;;;2.82;100.00
38939;BME280;24211;49.980;19.776;2023-02-17T05:22:36;99809.81;;;2.83;100.00
38939;BME280;24211;49.980;19.776;2023-02-17T05:25:04;99810.16;;;2.88;100.00
38939;BME280;24211;49.980;19.776;2023-02-17T05:27:32;99815.59;;;2.86;100.00
38939;BME280;24211;49.980;19.776;2023-02-17T05:30:00;99813.47;;;2.82;100.00
38939;BME280;24211;49.980;19.776;2023-02-17T05:32:27;99815.44;;;2.80;100.00
38939;BME280;24211;49.980;19.776;2023-02-17T05:34:54;99811.78;;;2.81;100.00
38939;BME280;24211;49.980;19.776;2023-02-17T05:37:21;99806.50;;;2.81;100.00
38939;BME280;24211;49.980;19.776;2023-02-17T05:39:49;99802.91;;;2.82;100.00
38939;BME280;24211;49.980;19.776;2023-02-17T05:42:16;99801.88;;;2.83;100.00
38939;BME280;24211;49.980;19.776;2023-02-17T05:44:43;99800.91;;;2.84;100.00
38939;BME280;24211;49.980;19.776;2023-02-17T05:47:10;99795.63;;;2.84;100.00
38939;BME280;24211;49.980;19.776;2023-02-17T05:49:37;99803.38;;;2.85;100.00
38939;BME280;24211;49.980;19.776;2023-02-17T05:52:04;99795.31;;;2.87;100.00
38939;BME280;24211;49.980;19.776;2023-02-17T05:54:31;99791.66;;;2.88;100.00
38939;BME280;24211;49.980;19.776;2023-02-17T05:56:58;99778.47;;;2.88;100.00
38939;BME280;24211;49.980;19.776;2023-02-17T05:59:26;99778.47;;;2.88;100.00
38939;BME280;24211;49.980;19.776;2023-02-17T06:01:53;99785.59;;;2.87;100.00
38939;BME280;24211;49.980;19.776;2023-02-17T06:04:20;99768.91;;;2.87;100.00
38939;BME280;24211;49.980;19.776;2023-02-17T06:06:47;99782.78;;;2.89;100.00
38939;BME280;24211;49.980;19.776;2023-02-17T06:09:14;99775.50;;;2.91;100.00
38939;BME280;24211;49.980;19.776;2023-02-17T06:11:41;99785.75;;;2.94;100.00
38939;BME280;24211;49.980;19.776;2023-02-17T06:14:09;99771.56;;;2.95;100.00
38939;BME280;24211;49.980;19.776;2023-02-17T06:16:36;99762.63;;;2.96;100.00
38939;BME280;24211;49.980;19.776;2023-02-17T06:19:03;99760.66;;;2.98;100.00
38939;BME280;24211;49.980;19.776;2023-02-17T06:21:31;99760.34;;;3.01;100.00
38939;BME280;24211;49.980;19.776;2023-02-17T06:23:58;99764.31;;;2.97;100.00
38939;BME280;24211;49.980;19.776;2023-02-17T06:26:25;99752.41;;;2.93;100.00
38939;BME280;24211;49.980;19.776;2023-02-17T06:28:52;99750.78;;;2.92;100.00
38939;BME280;24211;49.980;19.776;2023-02-17T06:31:20;99758.03;;;2.90;100.00
38939;BME280;24211;49.980;19.776;2023-02-17T06:33:47;99750.78;;;2.92;100.00
38939;BME280;24211;49.980;19.776;2023-02-17T06:36:14;99747.97;;;2.93;100.00
38939;BME280;24211;49.980;19.776;2023-02-17T06:38:41;99752.09;;;2.96;100.00
38939;BME280;24211;49.980;19.776;2023-02-17T06:41:09;99743.34;;;2.95;100.00
38939;BME280;24211;49.980;19.776;2023-02-17T06:43:37;99743.34;;;2.95;100.00
38939;BME280;24211;49.980;19.776;2023-02-17T06:46:05;99744.47;;;2.93;100.00
38939;BME280;24211;49.980;19.776;2023-02-17T06:48:33;99749.13;;;2.91;100.00
38939;BME280;24211;49.980;19.776;2023-02-17T06:51:01;99744.84;;;2.90;100.00
38939;BME280;24211;49.980;19.776;2023-02-17T06:53:28;99745.63;;;2.90;100.00
38939;BME280;24211;49.980;19.776;2023-02-17T06:55:55;99750.78;;;2.92;100.00
38939;BME280;24211;49.980;19.776;2023-02-17T06:58:22;99752.41;;;2.93;100.00
38939;BME280;24211;49.980;19.776;2023-02-17T07:00:49;99755.03;;;2.93;100.00
38939;BME280;24211;49.980;19.776;2023-02-17T07:03:17;99762.63;;;2.96;100.00
38939;BME280;24211;49.980;19.776;2023-02-17T07:05:44;99759.84;;;2.97;100.00
38939;BME280;24211;49.980;19.776;2023-02-17T07:08:11;99757.88;;;2.99;100.00
38939;BME280;24211;49.980;19.776;2023-02-17T07:10:39;99763.16;;;2.99;100.00
38939;BME280;24211;49.980;19.776;2023-02-17T07:13:06;99767.28;;;3.02;100.00
38939;BME280;24211;49.980;19.776;2023-02-17T07:15:33;99772.56;;;3.02;100.00
38939;BME280;24211;49.980;19.776;2023-02-17T07:18:00;99769.91;;;3.02;100.00
38939;BME280;24211;49.980;19.776;2023-02-17T07:20:29;99773.53;;;3.01;100.00
38939;BME280;24211;49.980;19.776;2023-02-17T07:22:59;99776.81;;;3.03;100.00
38939;BME280;24211;49.980;19.776;2023-02-17T07:25:26;99779.47;;;3.03;100.00
38939;BME280;24211;49.980;19.776;2023-02-17T07:27:53;99767.94;;;3.04;100.00
38939;BME280;24211;49.980;19.776;2023-02-17T07:30:20;99758.03;;;3.06;100.00
38939;BME280;24211;49.980;19.776;2023-02-17T07:32:48;99762.16;;;3.08;100.00
38939;BME280;24211;49.980;19.776;2023-02-17T07:35:15;99753.25;;;3.09;100.00
38939;BME280;24211;49.980;19.776;2023-02-17T07:37:43;99748.44;;;3.13;100.00
38939;BME280;24211;49.980;19.776;2023-02-17T07:40:10;99738.72;;;3.13;100.00
38939;BME280;24211;49.980;19.776;2023-02-17T07:42:38;99736.72;;;3.15;100.00
38939;BME280;24211;49.980;19.776;2023-02-17T07:45:06;99732.28;;;3.16;100.00
38939;BME280;24211;49.980;19.776;2023-02-17T07:47:33;99733.25;;;3.23;100.00
38939;BME280;24211;49.980;19.776;2023-02-17T07:50:00;99732.59;;;3.29;100.00
38939;BME280;24211;49.980;19.776;2023-02-17T07:52:28;99738.19;;;3.34;100.00
38939;BME280;24211;49.980;19.776;2023-02-17T07:54:55;99727.13;;;3.39;100.00
38939;BME280;24211;49.980;19.776;2023-02-17T07:57:22;99723.97;;;3.43;100.00
38939;BME280;24211;49.980;19.776;2023-02-17T07:59:49;99716.34;;;3.48;100.00
38939;BME280;24211;49.980;19.776;2023-02-17T08:02:16;99724.41;;;3.55;100.00
38939;BME280;24211;49.980;19.776;2023-02-17T08:04:44;99715.47;;;3.64;100.00
38939;BME280;24211;49.980;19.776;2023-02-17T08:07:11;99725.19;;;3.71;100.00
38939;BME280;24211;49.980;19.776;2023-02-17T08:09:38;99721.53;;;3.80;100.00
38939;BME280;24211;49.980;19.776;2023-02-17T08:12:24;99722.50;;;3.87;100.00
38939;BME280;24211;49.980;19.776;2023-02-17T08:15:10;99712.03;;;3.94;100.00
38939;BME280;24211;49.980;19.776;2023-02-17T08:17:38;99708.88;;;3.98;100.00
38939;BME280;24211;49.980;19.776;2023-02-17T08:20:06;99703.06;;;4.03;100.00
38939;BME280;24211;49.980;19.776;2023-02-17T08:22:35;99707.47;;;4.11;100.00
38939;BME280;24211;49.980;19.776;2023-02-17T08:25:03;99699.50;;;4.19;100.00
38939;BME280;24211;49.980;19.776;2023-02-17T08:27:32;99688.69;;;4.28;100.00
38939;BME280;24211;49.980;19.776;2023-02-17T08:29:59;99681.66;;;4.43;100.00
38939;BME280;24211;49.980;19.776;2023-02-17T08:32:27;99694.34;;;4.48;100.00
38939;BME280;24211;49.980;19.776;2023-02-17T08:34:55;99690.13;;;4.61;100.00
38939;BME280;24211;49.980;19.776;2023-02-17T08:37:24;99699.06;;;4.60;100.00
38939;BME280;24211;49.980;19.776;2023-02-17T08:39:51;99692.81;;;4.76;100.00
38939;BME280;24211;49.980;19.776;2023-02-17T08:42:18;99691.09;;;4.83;100.00
38939;BME280;24211;49.980;19.776;2023-02-17T08:44:45;99687.09;;;4.87;100.00
38939;BME280;24211;49.980;19.776;2023-02-17T08:47:12;99687.53;;;5.13;100.00
38939;BME280;24211;49.980;19.776;2023-02-17T08:49:39;99679.56;;;5.13;100.00
38939;BME280;24211;49.980;19.776;2023-02-17T08:52:07;99681.56;;;5.11;100.00
38939;BME280;24211;49.980;19.776;2023-02-17T08:54:35;99683.84;;;5.14;100.00
38939;BME280;24211;49.980;19.776;2023-02-17T08:57:02;99677.19;;;5.18;100.00
38939;BME280;24211;49.980;19.776;2023-02-17T08:59:30;99670.19;;;5.25;100.00
38939;BME280;24211;49.980;19.776;2023-02-17T09:01:57;99671.72;;;5.35;100.00
38939;BME280;24211;49.980;19.776;2023-02-17T09:04:24;99672.63;;;5.42;100.00
38939;BME280;24211;49.980;19.776;2023-02-17T09:06:54;99675.56;;;5.47;100.00
38939;BME280;24211;49.980;19.776;2023-02-17T09:09:25;99672.81;;;5.55;100.00
38939;BME280;24211;49.980;19.776;2023-02-17T09:11:55;99666.78;;;5.61;100.00
38939;BME280;24211;49.980;19.776;2023-02-17T09:14:23;99676.03;;;5.65;100.00
38939;BME280;24211;49.980;19.776;2023-02-17T09:16:53;99677.91;;;5.71;100.00
38939;BME280;24211;49.980;19.776;2023-02-17T09:19:21;99671.88;;;5.77;100.00
38939;BME280;24211;49.980;19.776;2023-02-17T09:21:48;99673.78;;;5.83;100.00
38939;BME280;24211;49.980;19.776;2023-02-17T09:24:17;99677.75;;;5.87;100.00
38939;BME280;24211;49.980;19.776;2023-02-17T09:26:45;99682.88;;;5.88;100.00
38939;BME280;24211;49.980;19.776;2023-02-17T09:29:12;99675.53;;;5.90;100.00
38939;BME280;24211;49.980;19.776;2023-02-17T09:31:39;99670.69;;;5.94;100.00
38939;BME280;24211;49.980;19.776;2023-02-17T09:34:06;99664.38;;;5.95;100.00
38939;BME280;24211;49.980;19.776;2023-02-17T09:36:39;99660.72;;;5.96;100.00
38939;BME280;24211;49.980;19.776;2023-02-17T09:39:07;99657.03;;;5.97;100.00
38939;BME280;24211;49.980;19.776;2023-02-17T09:41:46;99659.31;;;6.00;100.00
38939;BME280;24211;49.980;19.776;2023-02-17T09:44:21;99648.16;;;6.05;100.00
38939;BME280;24211;49.980;19.776;2023-02-17T09:47:09;99645.59;;;6.11;100.00
38939;BME280;24211;49.980;19.776;2023-02-17T09:49:45;99636.84;;;6.17;100.00
38939;BME280;24211;49.980;19.776;2023-02-17T09:52:26;99630.97;;;6.22;100.00
38939;BME280;24211;49.980;19.776;2023-02-17T09:55:25;99630.69;;;6.31;100.00
38939;BME280;24211;49.980;19.776;2023-02-17T09:58:02;99634.66;;;6.42;100.00
38939;BME280;24211;49.980;19.776;2023-02-17T10:00:59;99641.66;;;6.49;100.00
38939;BME280;24211;49.980;19.776;2023-02-17T10:03:58;99643.84;;;6.61;100.00
38939;BME280;24211;49.980;19.776;2023-02-17T10:06:34;99645.13;;;6.71;100.00
38939;BME280;24211;49.980;19.776;2023-02-17T10:09:14;99643.53;;;6.77;100.00
38939;BME280;24211;49.980;19.776;2023-02-17T10:15:06;99636.94;;;6.94;100.00
38939;BME280;24211;49.980;19.776;2023-02-17T10:18:11;99634.38;;;7.07;100.00
38939;BME280;24211;49.980;19.776;2023-02-17T10:20:45;99621.31;;;7.12;100.00
38939;BME280;24211;49.980;19.776;2023-02-17T10:23:33;99625.66;;;7.19;100.00
38939;BME280;24211;49.980;19.776;2023-02-17T10:26:39;99624.69;;;7.27;100.00
38939;BME280;24211;49.980;19.776;2023-02-17T10:29:31;99620.25;;;7.41;100.00
38939;BME280;24211;49.980;19.776;2023-02-17T10:32:22;99607.19;;;7.46;100.00
38939;BME280;24211;49.980;19.776;2023-02-17T10:38:48;99600.75;;;7.68;100.00
38939;BME280;24211;49.980;19.776;2023-02-17T10:41:22;99594.22;;;7.70;100.00
38939;BME280;24211;49.980;19.776;2023-02-17T10:43:51;99599.97;;;7.80;100.00
38939;BME280;24211;49.980;19.776;2023-02-17T10:46:27;99593.84;;;7.86;100.00
38939;BME280;24211;49.980;19.776;2023-02-17T10:48:57;99591.41;;;7.91;100.00
38939;BME280;24211;49.980;19.776;2023-02-17T10:51:29;99582.41;;;7.93;100.00
38939;BME280;24211;49.980;19.776;2023-02-17T10:54:21;99582.63;;;7.98;100.00
38939;BME280;24211;49.980;19.776;2023-02-17T10:56:54;99575.47;;;8.05;100.00
38939;BME280;24211;49.980;19.776;2023-02-17T10:59:38;99567.09;;;8.08;100.00
38939;BME280;24211;49.980;19.776;2023-02-17T11:02:35;99565.44;;;8.07;100.00
38939;BME280;24211;49.980;19.776;2023-02-17T11:05:07;99555.81;;;8.06;100.00
38939;BME280;24211;49.980;19.776;2023-02-17T11:07:38;99568.72;;;8.09;100.00
38939;BME280;24211;49.980;19.776;2023-02-17T11:10:30;99570.97;;;8.12;100.00
38939;BME280;24211;49.980;19.776;2023-02-17T11:12:59;99560.75;;;8.15;100.00
38939;BME280;24211;49.980;19.776;2023-02-17T11:15:35;99559.72;;;8.16;100.00
38939;BME280;24211;49.980;19.776;2023-02-17T11:18:15;99558.28;;;8.14;100.00
38939;BME280;24211;49.980;19.776;2023-02-17T11:20:45;99561.97;;;8.13;100.00
38939;BME280;24211;49.980;19.776;2023-02-17T11:23:21;99564.81;;;8.11;100.00
38939;BME280;24211;49.980;19.776;2023-02-17T11:28:34;99552.53;;;8.04;100.00
38939;BME280;24211;49.980;19.776;2023-02-17T11:31:02;99543.31;;;8.00;100.00
38939;BME280;24211;49.980;19.776;2023-02-17T11:33:38;99534.31;;;8.01;100.00
38939;BME280;24211;49.980;19.776;2023-02-17T11:36:07;99534.09;;;8.02;100.00
38939;BME280;24211;49.980;19.776;2023-02-17T11:41:07;99517.31;;;8.02;100.00
38939;BME280;24211;49.980;19.776;2023-02-17T11:43:36;99522.44;;;8.03;100.00
38939;BME280;24211;49.980;19.776;2023-02-17T11:46:31;99518.97;;;8.03;100.00
38939;BME280;24211;49.980;19.776;2023-02-17T12:04:30;99480.06;;;8.08;100.00
38939;BME280;24211;49.980;19.776;2023-02-17T12:07:17;99475.16;;;8.12;100.00
38939;BME280;24211;49.980;19.776;2023-02-17T12:10:05;99476.34;;;8.16;100.00
38939;BME280;24211;49.980;19.776;2023-02-17T12:15:59;99475.78;;;8.27;100.00
38939;BME280;24211;49.980;19.776;2023-02-17T12:31:18;99456.88;;;8.68;100.00
38939;BME280;24211;49.980;19.776;2023-02-17T12:34:11;99445.16;;;8.75;100.00
38939;BME280;24211;49.980;19.776;2023-02-17T12:36:42;99442.28;;;8.83;100.00
38939;BME280;24211;49.980;19.776;2023-02-17T12:39:21;99448.81;;;8.87;100.00
38939;BME280;24211;49.980;19.776;2023-02-17T12:41:58;99452.50;;;8.93;100.00
38939;BME280;24211;49.980;19.776;2023-02-17T12:44:36;99443.88;;;8.97;100.00
38939;BME280;24211;49.980;19.776;2023-02-17T12:47:57;99436.06;;;9.02;100.00
38939;BME280;24211;49.980;19.776;2023-02-17T12:50:34;99440.13;;;9.05;100.00
38939;BME280;24211;49.980;19.776;2023-02-17T12:53:11;99422.91;;;9.07;100.00
38939;BME280;24211;49.980;19.776;2023-02-17T12:55:46;99427.22;;;9.08;100.00
38939;BME280;24211;49.980;19.776;2023-02-17T12:58:27;99421.47;;;9.11;100.00
38939;BME280;24211;49.980;19.776;2023-02-17T13:01:08;99425.16;;;9.10;100.00
38939;BME280;24211;49.980;19.776;2023-02-17T13:03:37;99410.59;;;9.13;100.00
38939;BME280;24211;49.980;19.776;2023-02-17T13:06:33;99417.97;;;9.11;100.00
38939;BME280;24211;49.980;19.776;2023-02-17T13:11:44;99408.16;;;9.05;100.00
38939;BME280;24211;49.980;19.776;2023-02-17T13:14:24;99402.00;;;9.04;100.00
38939;BME280;24211;49.980;19.776;2023-02-17T13:16:53;99412.88;;;9.03;100.00
38939;BME280;24211;49.980;19.776;2023-02-17T13:19:34;99399.16;;;8.99;100.00
38939;BME280;24211;49.980;19.776;2023-02-17T13:22:01;99401.22;;;8.97;100.00
38939;BME280;24211;49.980;19.776;2023-02-17T13:24:38;99387.88;;;8.97;100.00
38939;BME280;24211;49.980;19.776;2023-02-17T13:35:50;99384.81;;;9.00;100.00
38939;BME280;24211;49.980;19.776;2023-02-17T13:38:29;99382.75;;;9.02;100.00
38939;BME280;24211;49.980;19.776;2023-02-17T13:41:01;99372.66;;;9.04;100.00
38939;BME280;24211;49.980;19.776;2023-02-17T13:43:41;99370.00;;;9.04;100.00
38939;BME280;24211;49.980;19.776;2023-02-17T13:46:16;99358.31;;;9.05;100.00
38939;BME280;24211;49.980;19.776;2023-02-17T13:48:57;99360.56;;;9.08;100.00
38939;BME280;24211;49.980;19.776;2023-02-17T13:51:28;99361.78;;;9.12;100.00
38939;BME280;24211;49.980;19.776;2023-02-17T13:54:07;99356.00;;;9.15;100.00
38939;BME280;24211;49.980;19.776;2023-02-17T13:56:34;99344.94;;;9.18;100.00
38939;BME280;24211;49.980;19.776;2023-02-17T13:59:12;99343.69;;;9.21;100.00
38939;BME280;24211;49.980;19.776;2023-02-17T14:01:45;99332.97;;;9.28;100.00
38939;BME280;24211;49.980;19.776;2023-02-17T14:04:26;99328.81;;;9.32;100.00
38939;BME280;24211;49.980;19.776;2023-02-17T14:06:57;99319.97;;;9.38;100.00
38939;BME280;24211;49.980;19.776;2023-02-17T14:09:34;99324.25;;;9.39;100.00
38939;BME280;24211;49.980;19.776;2023-02-17T14:12:06;99318.50;;;9.42;100.00
38939;BME280;24211;49.980;19.776;2023-02-17T14:14:36;99317.25;;;9.44;100.00
38939;BME280;24211;49.980;19.776;2023-02-17T14:17:26;99305.31;;;9.47;100.00
38939;BME280;24211;49.980;19.776;2023-02-17T14:19:53;99311.88;;;9.51;100.00
38939;BME280;24211;49.980;19.776;2023-02-17T14:22:29;99307.72;;;9.55;100.00
38939;BME280;24211;49.980;19.776;2023-02-17T14:25:04;99302.59;;;9.53;100.00
38939;BME280;24211;49.980;19.776;2023-02-17T14:27:46;99290.53;;;9.51;100.00